logo
Search for airport 
image banner adimage banner adimage banner ad
image banner ad

EINN - Shannon

Located in Limerick, Ireland

ICAO - EINN, IATA - SNN

Data provided by Airmate  

General information

Coordinates: N52°42'7" W8°55'29"
Elevation is 46 feet MSL.
Magnetic variation is -4° East
View others Airports in County Clare

Operational data

Special qualification required
Current time UTC:
Current local time:
Weather
METAR: EINN 171630Z 30009KT 9999 FEW026 BKN048 16/10 Q1014 NOSIG
View NOTAMs / SUP AIP / TFR affecting this airport [VIEW]
Communications frequencies: [VIEW]

Runways:

RWY identifierQFULength (ft)Width (ft)SurfaceLDA (ft)
0652°10495148ASPH10495
24232°10495148ASPH10036

Airport contact information

Address: Limerick Ireland

Other aviation service providers

Flight schools

Phoenix Flying Club

Phoenix Flying Club
dgd@leahysol.ie+35361315700
+353872596270

Satellite view of EINN